createdAt,value
2023-02-26T00:01:23.371Z,19.60
2023-02-26T00:03:51.625Z,19.60
2023-02-26T00:06:19.310Z,19.60
2023-02-26T00:08:45.972Z,19.60
2023-02-26T00:11:13.813Z,19.60
2023-02-26T00:13:43.051Z,19.60
2023-02-26T00:16:23.713Z,19.50
2023-02-26T00:18:50.658Z,19.50
2023-02-26T00:21:19.211Z,19.50
2023-02-26T00:23:46.070Z,19.50
2023-02-26T00:26:12.738Z,19.50
2023-02-26T00:28:39.936Z,19.50
2023-02-26T00:31:07.244Z,19.50
2023-02-26T00:33:34.292Z,19.50
2023-02-26T00:36:47.890Z,19.50
2023-02-26T00:39:51.302Z,19.50
2023-02-26T00:42:18.230Z,19.50
2023-02-26T00:44:45.259Z,19.50
2023-02-26T00:47:37.660Z,19.50
2023-02-26T00:50:17.166Z,19.40
2023-02-26T00:52:50.789Z,19.40
2023-02-26T00:55:17.667Z,19.40
2023-02-26T00:57:44.566Z,19.40
2023-02-26T01:00:11.893Z,19.40
2023-02-26T01:02:39.606Z,19.40
2023-02-26T01:05:07.368Z,19.40
2023-02-26T01:07:44.302Z,19.40
2023-02-26T01:10:12.426Z,19.40
2023-02-26T01:12:39.358Z,19.40
2023-02-26T01:15:06.726Z,19.30
2023-02-26T01:17:47.810Z,19.30
2023-02-26T01:20:24.326Z,19.30
2023-02-26T01:23:04.445Z,19.30
2023-02-26T01:25:46.880Z,19.30
2023-02-26T01:28:13.999Z,19.30
2023-02-26T01:30:41.029Z,19.30
2023-02-26T01:33:13.882Z,19.30
2023-02-26T01:35:46.437Z,19.30
2023-02-26T01:38:36.573Z,19.30
2023-02-26T01:41:27.714Z,19.30
2023-02-26T01:44:09.298Z,19.30
2023-02-26T01:47:00.183Z,19.30
2023-02-26T01:49:27.498Z,19.30
2023-02-26T01:51:55.742Z,19.30
2023-02-26T01:54:30.937Z,19.30
2023-02-26T01:57:18.362Z,19.20
2023-02-26T01:59:48.394Z,19.30
2023-02-26T02:02:18.823Z,19.30
2023-02-26T02:04:47.528Z,19.20
2023-02-26T02:07:14.356Z,19.20
2023-02-26T02:09:42.418Z,19.20
2023-02-26T02:12:24.161Z,19.20
2023-02-26T02:15:13.523Z,19.20
2023-02-26T02:18:03.475Z,19.20
2023-02-26T02:20:51.821Z,19.20
2023-02-26T02:23:48.234Z,19.20
2023-02-26T02:26:32.759Z,19.20
2023-02-26T02:29:36.908Z,19.20
2023-02-26T02:32:17.132Z,19.20
2023-02-26T02:34:59.387Z,19.20
2023-02-26T02:37:42.950Z,19.10
2023-02-26T02:40:20.956Z,19.10
2023-02-26T02:42:59.289Z,19.10
2023-02-26T02:45:35.528Z,19.10
2023-02-26T02:48:09.697Z,19.10
2023-02-26T02:50:49.525Z,19.10
2023-02-26T02:53:24.216Z,19.10
2023-02-26T02:56:04.234Z,19.10
2023-02-26T02:58:36.935Z,19.10
2023-02-26T03:01:08.361Z,19.10
2023-02-26T03:03:50.227Z,19.00
2023-02-26T03:06:17.790Z,19.10
2023-02-26T03:08:46.439Z,19.00
2023-02-26T03:11:13.126Z,19.00
2023-02-26T03:13:40.997Z,19.00
2023-02-26T03:16:30.625Z,19.00
2023-02-26T03:19:21.980Z,19.00
2023-02-26T03:21:51.831Z,19.00
2023-02-26T03:24:29.146Z,19.00
2023-02-26T03:27:06.158Z,19.00
2023-02-26T03:29:38.583Z,19.00
2023-02-26T03:32:31.282Z,19.00
2023-02-26T03:35:09.091Z,19.00
2023-02-26T03:37:55.384Z,19.00
2023-02-26T03:40:25.458Z,19.00
2023-02-26T03:43:05.676Z,19.00
2023-02-26T03:45:35.666Z,19.00
2023-02-26T03:48:07.803Z,18.90
2023-02-26T03:50:43.650Z,18.90
2023-02-26T03:53:14.957Z,18.90
2023-02-26T03:56:06.930Z,18.90
2023-02-26T03:58:34.365Z,18.90
2023-02-26T04:01:06.440Z,18.90
2023-02-26T04:03:41.764Z,18.80
2023-02-26T04:06:08.702Z,18.90
2023-02-26T04:08:35.870Z,18.90
2023-02-26T04:11:11.882Z,18.80
2023-02-26T04:13:38.595Z,18.80
2023-02-26T04:16:05.549Z,18.90
2023-02-26T04:18:32.535Z,18.80
2023-02-26T04:20:59.109Z,18.80
2023-02-26T04:23:25.751Z,18.80
2023-02-26T04:25:52.582Z,18.80
2023-02-26T04:28:19.192Z,18.80
2023-02-26T04:30:45.872Z,18.80
2023-02-26T04:33:13.613Z,18.80
2023-02-26T04:35:40.408Z,18.80
2023-02-26T04:38:07.051Z,18.80
2023-02-26T04:40:33.944Z,18.80
2023-02-26T04:43:00.604Z,18.80
2023-02-26T04:45:27.290Z,18.80
2023-02-26T04:47:53.915Z,18.80
2023-02-26T04:50:20.744Z,18.70
2023-02-26T04:52:47.355Z,18.70
2023-02-26T04:55:14.670Z,18.80
2023-02-26T04:57:41.287Z,18.70
2023-02-26T05:00:08.593Z,18.70
2023-02-26T05:02:35.529Z,18.70
2023-02-26T05:05:02.120Z,18.70
2023-02-26T05:07:28.744Z,18.70
2023-02-26T05:09:55.391Z,18.70
2023-02-26T05:12:22.050Z,18.70
2023-02-26T05:14:48.685Z,18.70
2023-02-26T05:17:15.367Z,18.70
2023-02-26T05:19:42.046Z,18.70
2023-02-26T05:22:08.693Z,18.70
2023-02-26T05:24:35.306Z,18.70
2023-02-26T05:27:01.970Z,18.60
2023-02-26T05:29:28.564Z,18.70
2023-02-26T05:31:55.347Z,18.60
2023-02-26T05:34:22.154Z,18.70
2023-02-26T05:36:49.085Z,18.70
2023-02-26T05:39:15.697Z,18.60
2023-02-26T05:41:42.406Z,18.60
2023-02-26T05:44:09.141Z,18.60
2023-02-26T05:46:35.890Z,18.60
2023-02-26T05:49:02.537Z,18.60
2023-02-26T05:51:29.273Z,18.60
2023-02-26T05:53:55.906Z,18.60
2023-02-26T05:56:23.012Z,18.60
2023-02-26T05:58:49.774Z,18.60
2023-02-26T06:01:16.417Z,18.60
2023-02-26T06:03:44.213Z,18.60
2023-02-26T06:06:12.334Z,18.60
2023-02-26T06:08:38.972Z,18.60
2023-02-26T06:11:06.124Z,18.60
2023-02-26T06:13:32.806Z,18.60
2023-02-26T06:15:59.507Z,18.60
2023-02-26T06:18:26.807Z,18.60
2023-02-26T06:20:53.467Z,18.60
2023-02-26T06:23:20.238Z,18.60
2023-02-26T06:25:46.846Z,18.60
2023-02-26T06:28:13.462Z,18.60
2023-02-26T06:30:40.285Z,18.50
2023-02-26T06:33:06.943Z,18.50
2023-02-26T06:35:33.611Z,18.50
2023-02-26T06:38:00.204Z,18.60
2023-02-26T06:40:26.987Z,18.60
2023-02-26T06:42:53.596Z,18.60
2023-02-26T06:45:20.224Z,18.60
2023-02-26T06:47:46.868Z,18.60
2023-02-26T06:50:13.678Z,18.60
2023-02-26T06:52:40.356Z,18.60
2023-02-26T06:55:07.578Z,18.60
2023-02-26T06:57:34.189Z,18.60
2023-02-26T07:00:01.228Z,18.60
2023-02-26T07:02:28.196Z,18.60
2023-02-26T07:04:54.846Z,18.60
2023-02-26T07:07:21.515Z,18.60
2023-02-26T07:09:48.909Z,18.60
2023-02-26T07:12:15.670Z,18.60
2023-02-26T07:14:43.705Z,18.60
2023-02-26T07:17:10.486Z,18.60
2023-02-26T07:19:37.150Z,18.70
2023-02-26T07:22:03.794Z,18.60
2023-02-26T07:24:30.429Z,18.60
2023-02-26T07:26:57.178Z,18.70
2023-02-26T07:29:23.813Z,18.70
2023-02-26T07:31:50.523Z,18.70
2023-02-26T07:34:17.223Z,18.70
2023-02-26T07:36:43.874Z,18.70
2023-02-26T07:39:11.425Z,18.70
2023-02-26T07:41:38.156Z,18.70
2023-02-26T07:44:04.787Z,18.70
2023-02-26T07:46:31.450Z,18.70
2023-02-26T07:48:58.143Z,18.70
2023-02-26T07:51:25.152Z,18.80
2023-02-26T07:53:51.977Z,18.70
2023-02-26T07:56:18.697Z,18.80
2023-02-26T07:58:45.326Z,18.80
2023-02-26T08:01:12.052Z,18.80
2023-02-26T08:03:38.713Z,18.80
2023-02-26T08:06:05.933Z,18.90
2023-02-26T08:08:33.151Z,18.90
2023-02-26T08:11:00.426Z,18.90
2023-02-26T08:13:27.562Z,18.80
2023-02-26T08:15:54.186Z,18.80
2023-02-26T08:18:20.958Z,18.80
2023-02-26T08:20:47.564Z,18.80
2023-02-26T08:23:14.169Z,18.80
2023-02-26T08:25:41.265Z,18.80
2023-02-26T08:28:07.948Z,18.90
2023-02-26T08:30:34.602Z,18.90
2023-02-26T08:33:01.265Z,18.90
2023-02-26T08:35:27.920Z,19.00
2023-02-26T08:37:54.508Z,19.00
2023-02-26T08:40:21.331Z,19.00
2023-02-26T08:42:48.124Z,19.00
2023-02-26T08:45:14.955Z,19.10
2023-02-26T08:47:55.620Z,19.00
2023-02-26T08:50:23.766Z,19.10
2023-02-26T08:52:50.410Z,19.10
2023-02-26T08:55:17.185Z,19.10
2023-02-26T08:57:43.821Z,19.10
2023-02-26T09:00:12.612Z,19.10
2023-02-26T09:02:39.358Z,19.10
2023-02-26T09:05:06.297Z,19.20
2023-02-26T09:07:32.932Z,19.20
2023-02-26T09:09:59.866Z,19.20
2023-02-26T09:12:26.680Z,19.20
2023-02-26T09:14:53.350Z,19.20
2023-02-26T09:17:19.968Z,19.20
2023-02-26T09:19:46.603Z,19.20
2023-02-26T09:22:13.215Z,19.30
2023-02-26T09:24:39.891Z,19.30
2023-02-26T09:27:06.527Z,19.20
2023-02-26T09:29:33.216Z,19.30
2023-02-26T09:31:59.966Z,19.30
2023-02-26T09:34:26.734Z,19.30
2023-02-26T09:36:53.360Z,19.30
2023-02-26T09:39:19.919Z,19.30
2023-02-26T09:41:52.221Z,19.20
2023-02-26T09:44:24.988Z,19.30
2023-02-26T09:47:06.384Z,19.30
2023-02-26T09:49:44.911Z,19.30
2023-02-26T09:52:33.212Z,19.40
2023-02-26T09:55:11.333Z,19.30
2023-02-26T09:57:42.952Z,19.40
2023-02-26T10:00:37.660Z,19.40
2023-02-26T10:03:39.639Z,19.40
2023-02-26T10:06:13.055Z,19.40
2023-02-26T10:08:57.835Z,19.40
2023-02-26T10:11:42.357Z,19.40
2023-02-26T10:14:28.406Z,19.40
2023-02-26T10:17:01.944Z,19.40
2023-02-26T10:19:38.190Z,19.40
2023-02-26T10:22:18.273Z,19.40
2023-02-26T10:24:53.937Z,19.40
2023-02-26T10:27:44.865Z,19.40
2023-02-26T10:30:39.742Z,19.40
2023-02-26T10:33:22.004Z,19.40
2023-02-26T10:35:54.251Z,19.40
2023-02-26T10:38:27.042Z,19.40
2023-02-26T10:41:02.153Z,19.40
2023-02-26T10:43:39.861Z,19.40
2023-02-26T10:46:17.281Z,19.40
2023-02-26T10:49:10.465Z,19.40
2023-02-26T10:51:39.254Z,19.50
2023-02-26T10:54:15.018Z,19.40
2023-02-26T10:56:41.617Z,19.40
2023-02-26T10:59:08.284Z,19.40
2023-02-26T11:01:35.770Z,19.40
2023-02-26T11:04:05.198Z,19.50
2023-02-26T11:06:37.559Z,19.50
2023-02-26T11:09:13.676Z,19.50
2023-02-26T11:11:51.911Z,19.50
2023-02-26T11:14:21.669Z,19.50
2023-02-26T11:16:57.751Z,19.50
2023-02-26T11:19:31.164Z,19.50
2023-02-26T11:21:59.685Z,19.50
2023-02-26T11:24:38.277Z,19.50
2023-02-26T11:27:11.653Z,19.50
2023-02-26T11:29:41.343Z,19.50
2023-02-26T11:32:18.751Z,19.60
2023-02-26T11:34:48.613Z,19.50
2023-02-26T11:37:23.414Z,19.60
2023-02-26T11:40:13.879Z,19.60
2023-02-26T11:42:53.701Z,19.60
2023-02-26T11:45:21.974Z,19.60
2023-02-26T11:47:53.461Z,19.60
2023-02-26T11:50:23.074Z,19.60
2023-02-26T11:53:03.906Z,19.70
2023-02-26T11:55:35.954Z,19.70
2023-02-26T11:58:16.282Z,19.80
2023-02-26T12:00:42.936Z,19.80
2023-02-26T12:03:17.693Z,19.70
2023-02-26T12:05:45.340Z,19.70
2023-02-26T12:08:25.124Z,19.70
2023-02-26T12:11:00.625Z,19.70
2023-02-26T12:13:45.297Z,19.80
2023-02-26T12:16:30.259Z,19.80
2023-02-26T12:19:09.110Z,19.80
2023-02-26T12:21:56.293Z,19.80
2023-02-26T12:24:57.554Z,19.80
2023-02-26T12:27:36.227Z,19.80
2023-02-26T12:30:27.598Z,19.70
2023-02-26T12:33:15.526Z,19.70
2023-02-26T12:36:03.680Z,19.70
2023-02-26T12:38:41.680Z,19.70
2023-02-26T12:41:38.647Z,19.70
2023-02-26T12:44:29.027Z,19.70
2023-02-26T12:47:12.359Z,19.70
2023-02-26T12:50:07.320Z,19.70
2023-02-26T12:52:47.598Z,19.70
2023-02-26T12:55:29.854Z,19.70
2023-02-26T12:58:31.848Z,19.70
2023-02-26T13:02:00.909Z,19.70
2023-02-26T13:04:54.824Z,19.70
2023-02-26T13:38:42.311Z,19.70
2023-02-26T13:59:03.250Z,19.70
2023-02-26T14:01:46.167Z,19.70
2023-02-26T14:04:22.319Z,19.70
2023-02-26T14:06:51.365Z,19.70
2023-02-26T14:09:23.847Z,19.70
2023-02-26T14:12:15.636Z,19.70
2023-02-26T14:15:19.345Z,19.60
2023-02-26T14:18:01.806Z,19.60
2023-02-26T14:20:35.372Z,19.60
2023-02-26T14:23:09.510Z,19.60
2023-02-26T14:25:52.045Z,19.60
2023-02-26T14:28:18.620Z,19.60
2023-02-26T14:30:50.010Z,19.60
2023-02-26T14:33:19.567Z,19.60
2023-02-26T14:35:51.580Z,19.60
2023-02-26T14:38:21.154Z,19.70
2023-02-26T14:40:51.563Z,19.70
2023-02-26T14:43:44.139Z,19.60
2023-02-26T14:46:12.173Z,19.60
2023-02-26T14:48:40.913Z,19.60
2023-02-26T14:51:40.520Z,19.60
2023-02-26T14:54:32.608Z,19.60
2023-02-26T14:57:04.224Z,19.60
2023-02-26T14:59:52.495Z,19.50
2023-02-26T15:02:33.417Z,19.50
2023-02-26T15:05:32.555Z,19.50
2023-02-26T15:08:25.017Z,19.50
2023-02-26T15:10:57.334Z,19.50
2023-02-26T15:13:30.051Z,19.50
2023-02-26T15:15:59.566Z,19.50
2023-02-26T15:18:42.910Z,19.50
2023-02-26T15:21:40.610Z,19.50
2023-02-26T15:24:12.167Z,19.50
2023-02-26T15:26:51.163Z,19.50
2023-02-26T15:29:19.409Z,19.50
2023-02-26T15:32:01.178Z,19.50
2023-02-26T15:34:28.257Z,19.50
2023-02-26T15:36:57.882Z,19.50
2023-02-26T15:39:25.086Z,19.50
2023-02-26T15:41:54.341Z,19.40
2023-02-26T15:44:30.274Z,19.50
2023-02-26T15:47:01.956Z,19.40
2023-02-26T15:49:40.943Z,19.40
2023-02-26T15:52:11.633Z,19.40
2023-02-26T15:54:44.430Z,19.40
2023-02-26T15:57:13.386Z,19.40
2023-02-26T15:59:49.276Z,19.40
2023-02-26T16:02:20.691Z,19.40
2023-02-26T16:04:47.580Z,19.40
2023-02-26T16:07:14.686Z,19.30
2023-02-26T16:09:54.080Z,19.30
2023-02-26T16:12:20.756Z,19.30
2023-02-26T16:14:56.988Z,19.40
2023-02-26T16:17:30.165Z,19.40
2023-02-26T16:20:00.083Z,19.30
2023-02-26T16:22:35.422Z,19.30
2023-02-26T16:25:39.363Z,19.40
2023-02-26T16:28:14.640Z,19.30
2023-02-26T16:30:45.471Z,19.30
2023-02-26T16:33:17.106Z,19.30
2023-02-26T16:35:53.081Z,19.30
2023-02-26T16:38:28.378Z,19.20
2023-02-26T16:40:59.565Z,19.20
2023-02-26T16:43:47.516Z,19.30
2023-02-26T16:46:17.810Z,19.20
2023-02-26T16:49:22.728Z,19.20
2023-02-26T16:51:51.200Z,19.20
2023-02-26T16:54:42.282Z,19.20
2023-02-26T16:57:27.792Z,19.20
2023-02-26T16:59:58.053Z,19.20
2023-02-26T17:02:29.062Z,19.20
2023-02-26T17:05:01.255Z,19.20
2023-02-26T17:07:34.489Z,19.20
2023-02-26T17:10:21.434Z,19.20
2023-02-26T17:13:03.931Z,19.20
2023-02-26T17:15:37.040Z,19.20
2023-02-26T17:18:04.649Z,19.20
2023-02-26T17:20:32.235Z,19.20
2023-02-26T17:23:00.824Z,19.20
2023-02-26T17:25:33.606Z,19.20
2023-02-26T17:28:01.920Z,19.20
2023-02-26T17:30:32.502Z,19.30
2023-02-26T17:33:00.778Z,19.30
2023-02-26T17:35:29.090Z,19.30
2023-02-26T17:37:57.011Z,19.30
2023-02-26T17:40:26.658Z,19.30
2023-02-26T17:42:53.963Z,19.30
2023-02-26T17:45:21.100Z,19.30
2023-02-26T17:47:48.806Z,19.20
2023-02-26T17:50:36.282Z,19.20
2023-02-26T17:53:04.410Z,19.20
2023-02-26T17:55:31.789Z,19.20
2023-02-26T17:57:58.728Z,19.30
2023-02-26T18:00:25.597Z,19.20
2023-02-26T18:02:52.270Z,19.20
2023-02-26T18:05:19.831Z,19.20
2023-02-26T18:07:47.905Z,19.20
2023-02-26T18:10:23.746Z,19.20
2023-02-26T18:12:51.174Z,19.30
2023-02-26T18:15:17.796Z,19.20
2023-02-26T18:17:47.564Z,19.30
2023-02-26T18:20:22.478Z,19.20
2023-02-26T18:22:50.400Z,19.30
2023-02-26T18:25:17.921Z,19.30
2023-02-26T18:27:45.155Z,19.30
2023-02-26T18:30:25.474Z,19.30
2023-02-26T18:32:52.168Z,19.40
2023-02-26T18:35:19.027Z,19.30
2023-02-26T18:37:46.334Z,19.40
2023-02-26T18:40:16.075Z,19.40
2023-02-26T18:42:43.094Z,19.40
2023-02-26T18:45:11.037Z,19.40
2023-02-26T18:47:38.682Z,19.40
2023-02-26T18:50:06.563Z,19.40
2023-02-26T18:52:33.427Z,19.40
2023-02-26T18:55:02.810Z,19.50
2023-02-26T18:57:30.251Z,19.40
2023-02-26T18:59:57.031Z,19.50
2023-02-26T19:02:23.783Z,19.50
2023-02-26T19:04:50.663Z,19.40
2023-02-26T19:07:17.256Z,19.40
2023-02-26T19:09:43.999Z,19.40
2023-02-26T19:12:14.401Z,19.50
2023-02-26T19:14:41.326Z,19.50
2023-02-26T19:17:07.984Z,19.50
2023-02-26T19:19:34.768Z,19.40
2023-02-26T19:22:01.974Z,19.40
2023-02-26T19:24:28.916Z,19.40
2023-02-26T19:26:56.099Z,19.40
2023-02-26T19:29:22.864Z,19.50
2023-02-26T19:31:49.786Z,19.40
2023-02-26T19:34:16.560Z,19.50
2023-02-26T19:36:47.936Z,19.40
2023-02-26T19:39:16.368Z,19.40
2023-02-26T19:41:43.620Z,19.40
2023-02-26T19:44:10.271Z,19.40
2023-02-26T19:46:37.135Z,19.40
2023-02-26T19:49:04.309Z,19.40
2023-02-26T19:51:31.162Z,19.40
2023-02-26T19:53:57.785Z,19.40
2023-02-26T19:56:24.845Z,19.40
2023-02-26T19:58:51.631Z,19.40
2023-02-26T20:01:18.491Z,19.40
2023-02-26T20:03:47.370Z,19.40
2023-02-26T20:06:14.753Z,19.40
2023-02-26T20:08:41.893Z,19.40
2023-02-26T20:11:09.005Z,19.40
2023-02-26T20:13:36.124Z,19.40
2023-02-26T20:16:05.669Z,19.40
2023-02-26T20:18:39.189Z,19.40
2023-02-26T20:21:08.877Z,19.40
2023-02-26T20:23:37.542Z,19.40
2023-02-26T20:26:10.467Z,19.30
2023-02-26T20:28:37.236Z,19.40
2023-02-26T20:31:05.874Z,19.30
2023-02-26T20:33:33.549Z,19.40
2023-02-26T20:36:00.513Z,19.30
2023-02-26T20:38:28.151Z,19.40
2023-02-26T20:40:56.525Z,19.30
2023-02-26T20:43:24.940Z,19.30
2023-02-26T20:45:51.974Z,19.40
2023-02-26T20:48:18.972Z,19.30
2023-02-26T20:50:45.569Z,19.30
2023-02-26T20:53:12.192Z,19.40
2023-02-26T20:55:38.910Z,19.30
2023-02-26T20:58:05.720Z,19.30
2023-02-26T21:00:32.422Z,19.30
2023-02-26T21:02:59.037Z,19.40
2023-02-26T21:05:25.699Z,19.40
2023-02-26T21:07:52.462Z,19.30
2023-02-26T21:10:19.751Z,19.40
2023-02-26T21:12:46.511Z,19.30
2023-02-26T21:15:13.792Z,19.30
2023-02-26T21:17:42.591Z,19.30
2023-02-26T21:20:11.922Z,19.30
2023-02-26T21:22:39.492Z,19.30
2023-02-26T21:25:07.278Z,19.30
2023-02-26T21:27:35.072Z,19.30
2023-02-26T21:30:02.097Z,19.30
2023-02-26T21:32:28.774Z,19.30
2023-02-26T21:34:55.722Z,19.30
2023-02-26T21:37:22.414Z,19.30
2023-02-26T21:39:49.013Z,19.30
2023-02-26T21:42:16.019Z,19.30
2023-02-26T21:44:42.709Z,19.30
2023-02-26T21:47:09.550Z,19.30
2023-02-26T21:49:36.432Z,19.30
2023-02-26T21:52:05.796Z,19.30
2023-02-26T21:54:32.932Z,19.30
2023-02-26T21:56:59.629Z,19.30
2023-02-26T21:59:26.465Z,19.30
2023-02-26T22:01:53.434Z,19.30
2023-02-26T22:04:20.288Z,19.30
2023-02-26T22:06:47.153Z,19.30
2023-02-26T22:09:14.117Z,19.30
2023-02-26T22:11:40.860Z,19.30
2023-02-26T22:14:07.455Z,19.30
2023-02-26T22:16:34.138Z,19.20
2023-02-26T22:19:01.009Z,19.30
2023-02-26T22:21:28.051Z,19.20
2023-02-26T22:23:55.003Z,19.30
2023-02-26T22:26:21.914Z,19.20
2023-02-26T22:28:48.551Z,19.30
2023-02-26T22:31:15.213Z,19.20
2023-02-26T22:33:41.928Z,19.30
2023-02-26T22:36:08.763Z,19.20
2023-02-26T22:38:35.467Z,19.20
2023-02-26T22:41:02.168Z,19.20
2023-02-26T22:43:28.810Z,19.20
2023-02-26T22:45:55.380Z,19.20
2023-02-26T22:48:22.018Z,19.20
2023-02-26T22:50:50.647Z,19.20
2023-02-26T22:53:17.336Z,19.20
2023-02-26T22:55:43.977Z,19.20
2023-02-26T22:58:10.647Z,19.20
2023-02-26T23:00:37.381Z,19.20
2023-02-26T23:03:04.308Z,19.20
2023-02-26T23:05:30.989Z,19.20
2023-02-26T23:07:57.685Z,19.20
2023-02-26T23:10:24.288Z,19.20
2023-02-26T23:12:50.920Z,19.20
2023-02-26T23:15:17.853Z,19.20
2023-02-26T23:17:44.522Z,19.20
2023-02-26T23:20:13.769Z,19.20
2023-02-26T23:22:41.350Z,19.10
2023-02-26T23:25:08.394Z,19.10
2023-02-26T23:27:35.003Z,19.10
2023-02-26T23:30:01.761Z,19.10
2023-02-26T23:32:28.489Z,19.10
2023-02-26T23:34:55.115Z,19.10
2023-02-26T23:37:21.787Z,19.10
2023-02-26T23:39:48.976Z,19.10
2023-02-26T23:42:15.775Z,19.10
2023-02-26T23:44:42.394Z,19.10
2023-02-26T23:47:08.976Z,19.10
2023-02-26T23:49:35.559Z,19.10
2023-02-26T23:52:02.389Z,19.10
2023-02-26T23:54:29.053Z,19.10
2023-02-26T23:56:55.669Z,19.10
2023-02-26T23:59:22.288Z,19.10
